Terminal Aerodrome Forecast
Issued by NWS

Home | Current Version | Previous Version | Text Only | Print | Product List | Glossary On
Versions: 1 2 3 4 5 6 7 8 9 10 11 12 13
589
FTUS41 KCAR 261728
TAFHUL
TAF
KHUL 261728Z 2618/2718 05009KT 3SM -RA BR OVC009
     FM262100 04012KT P6SM OVC010
     FM262300 03011KT P6SM OVC010
     FM271000 02007KT P6SM SCT003=

USA.gov is the U.S. government's official web portal to all federal, state and local government web resources and services.